Terminal Aerodrome Forecast
Issued by NWS Sterling, VA

Current Version | Previous Version | Graphics & Text | Print | Product List | Glossary On
Versions: 1 2 3 4 5 6 7 8 9 10 11 12 13 14 15 16 17 18 19 20 21
000
FTUS41 KLWX 201457 AAA
TAFDCA
TAF AMD
KDCA 201457Z 2015/2112 33008G16KT P6SM FEW050 SCT200
     FM210000 33005KT P6SM SCT200
     FM210300 VRB03KT P6SM SCT200=

USA.gov is the U.S. government's official web portal to all federal, state and local government web resources and services.